createdAt,value
2018-12-26T00:00:17.958Z,1.30
2018-12-26T00:02:46.883Z,1.60
2018-12-26T00:05:13.820Z,1.80
2018-12-26T00:07:40.281Z,1.60
2018-12-26T00:10:06.793Z,1.40
2018-12-26T00:12:33.334Z,1.60
2018-12-26T00:14:59.743Z,1.40
2018-12-26T00:17:26.492Z,1.50
2018-12-26T00:19:55.575Z,1.20
2018-12-26T00:22:22.104Z,1.00
2018-12-26T00:24:48.661Z,1.10
2018-12-26T00:27:17.252Z,1.00
2018-12-26T00:29:43.927Z,1.10
2018-12-26T00:32:10.742Z,1.10
2018-12-26T00:34:37.256Z,1.10
2018-12-26T00:37:03.814Z,0.80
2018-12-26T00:39:31.519Z,0.70
2018-12-26T00:41:57.918Z,0.60
2018-12-26T00:44:26.471Z,0.40
2018-12-26T00:46:52.991Z,0.80
2018-12-26T00:49:19.977Z,1.10
2018-12-26T00:51:46.577Z,1.30
2018-12-26T00:54:15.475Z,0.90
2018-12-26T00:56:41.947Z,1.10
2018-12-26T00:59:08.464Z,1.20
2018-12-26T01:01:37.437Z,1.40
2018-12-26T01:04:03.947Z,1.10
2018-12-26T01:06:30.502Z,0.30
2018-12-26T01:08:57.142Z,0.20
2018-12-26T01:11:25.730Z,0.80
2018-12-26T01:13:52.311Z,0.50
2018-12-26T01:16:18.861Z,0.50
2018-12-26T01:18:47.626Z,0.50
2018-12-26T01:21:16.675Z,0.70
2018-12-26T01:23:43.848Z,1.10
2018-12-26T01:26:18.985Z,1.40
2018-12-26T01:28:41.491Z,1.20
2018-12-26T01:31:10.263Z,1.40
2018-12-26T01:36:05.419Z,1.50
2018-12-26T01:38:31.924Z,1.40
2018-12-26T01:41:00.714Z,1.10
2018-12-26T01:43:27.319Z,1.30
2018-12-26T01:45:53.862Z,1.30
2018-12-26T01:48:21.651Z,0.80
2018-12-26T01:50:48.188Z,1.10
2018-12-26T01:53:14.727Z,1.40
2018-12-26T01:55:41.374Z,1.50
2018-12-26T01:58:07.986Z,1.70
2018-12-26T02:00:34.488Z,1.50
2018-12-26T02:03:00.995Z,1.40
2018-12-26T02:05:27.620Z,1.70
2018-12-26T02:07:54.146Z,1.30
2018-12-26T02:10:20.670Z,1.40
2018-12-26T02:12:47.223Z,1.20
2018-12-26T02:15:13.906Z,0.90
2018-12-26T02:17:40.509Z,0.90
2018-12-26T02:20:07.034Z,1.10
2018-12-26T02:22:33.669Z,1.10
2018-12-26T02:25:00.280Z,0.90
2018-12-26T02:27:27.855Z,1.00
2018-12-26T02:29:54.408Z,1.10
2018-12-26T02:32:20.954Z,1.20
2018-12-26T02:34:48.541Z,1.40
2018-12-26T02:37:15.046Z,1.20
2018-12-26T02:39:41.672Z,1.20
2018-12-26T02:42:08.166Z,1.30
2018-12-26T02:44:34.801Z,1.30
2018-12-26T02:47:01.334Z,1.00
2018-12-26T02:49:27.857Z,1.30
2018-12-26T02:51:54.517Z,1.10
2018-12-26T02:54:21.099Z,0.90
2018-12-26T02:56:49.120Z,0.80
2018-12-26T02:59:15.807Z,1.10
2018-12-26T03:01:42.358Z,1.20
2018-12-26T03:04:09.010Z,1.30
2018-12-26T03:06:35.561Z,1.40
2018-12-26T03:09:02.151Z,1.30
2018-12-26T03:11:28.681Z,1.20
2018-12-26T03:13:55.213Z,0.90
2018-12-26T03:16:21.735Z,0.80
2018-12-26T03:18:48.243Z,1.00
2018-12-26T03:21:14.804Z,1.20
2018-12-26T03:23:41.350Z,1.00
2018-12-26T03:26:07.862Z,0.70
2018-12-26T03:28:34.455Z,1.00
2018-12-26T03:31:00.957Z,1.20
2018-12-26T03:33:27.543Z,1.20
2018-12-26T03:35:54.103Z,1.40
2018-12-26T03:38:20.629Z,1.40
2018-12-26T03:40:47.127Z,1.50
2018-12-26T03:43:13.663Z,1.40
2018-12-26T03:45:40.219Z,1.30
2018-12-26T03:48:06.756Z,1.40
2018-12-26T03:50:33.292Z,1.30
2018-12-26T03:53:00.798Z,1.20
2018-12-26T03:55:27.338Z,1.30
2018-12-26T03:57:53.945Z,1.50
2018-12-26T04:00:21.617Z,1.60
2018-12-26T04:02:48.110Z,1.70
2018-12-26T04:05:14.692Z,1.30
2018-12-26T04:07:41.221Z,1.40
2018-12-26T04:10:07.831Z,1.70
2018-12-26T04:12:34.368Z,1.30
2018-12-26T04:15:01.044Z,0.90
2018-12-26T04:17:27.591Z,1.30
2018-12-26T04:19:54.126Z,1.00
2018-12-26T04:22:22.764Z,1.30
2018-12-26T04:24:49.267Z,1.40
2018-12-26T04:27:15.959Z,1.50
2018-12-26T04:29:42.493Z,1.50
2018-12-26T04:32:09.033Z,1.60
2018-12-26T04:34:35.544Z,1.60
2018-12-26T04:37:04.459Z,1.40
2018-12-26T04:39:30.995Z,1.30
2018-12-26T04:41:57.529Z,1.20
2018-12-26T04:44:26.019Z,1.30
2018-12-26T04:46:54.710Z,1.40
2018-12-26T04:49:21.201Z,1.50
2018-12-26T04:51:48.630Z,1.40
2018-12-26T04:54:15.188Z,1.50
2018-12-26T04:56:44.047Z,1.70
2018-12-26T04:59:13.155Z,1.70
2018-12-26T05:01:42.313Z,1.70
2018-12-26T05:04:08.825Z,1.90
2018-12-26T05:06:37.435Z,1.90
2018-12-26T05:09:06.638Z,1.60
2018-12-26T05:11:33.200Z,1.70
2018-12-26T05:13:59.720Z,1.20
2018-12-26T05:16:27.159Z,1.00
2018-12-26T05:18:56.394Z,1.30
2018-12-26T05:21:22.898Z,1.40
2018-12-26T05:23:49.434Z,0.90
2018-12-26T05:26:18.789Z,1.30
2018-12-26T05:28:45.330Z,1.40
2018-12-26T05:31:12.630Z,1.40
2018-12-26T05:33:39.185Z,1.40
2018-12-26T05:36:05.715Z,1.40
2018-12-26T05:38:32.203Z,1.20
2018-12-26T05:40:59.066Z,1.40
2018-12-26T05:43:25.578Z,1.40
2018-12-26T05:45:52.094Z,1.50
2018-12-26T05:48:18.609Z,1.60
2018-12-26T05:50:45.118Z,1.40
2018-12-26T05:53:14.010Z,1.30
2018-12-26T05:55:42.630Z,1.30
2018-12-26T05:58:10.838Z,1.60
2018-12-26T06:00:39.497Z,1.70
2018-12-26T06:03:08.496Z,1.70
2018-12-26T06:05:37.178Z,1.90
2018-12-26T06:08:04.196Z,1.90
2018-12-26T06:10:30.814Z,1.70
2018-12-26T06:12:57.581Z,1.80
2018-12-26T06:15:24.163Z,1.80
2018-12-26T06:17:52.851Z,1.80
2018-12-26T06:20:19.341Z,1.90
2018-12-26T06:22:45.842Z,1.80
2018-12-26T06:25:12.370Z,1.50
2018-12-26T06:27:38.904Z,1.70
2018-12-26T06:30:05.517Z,1.70
2018-12-26T06:32:34.294Z,1.30
2018-12-26T06:35:00.913Z,1.40
2018-12-26T06:37:27.884Z,1.40
2018-12-26T06:39:55.554Z,1.20
2018-12-26T06:42:22.090Z,1.10
2018-12-26T06:44:51.997Z,1.20
2018-12-26T06:47:18.726Z,1.10
2018-12-26T06:49:45.452Z,1.40
2018-12-26T06:52:14.108Z,1.50
2018-12-26T06:54:40.641Z,1.40
2018-12-26T06:57:07.146Z,1.60
2018-12-26T06:59:35.708Z,1.50
2018-12-26T07:02:02.240Z,1.40
2018-12-26T07:04:30.834Z,1.40
2018-12-26T07:06:57.383Z,1.60
2018-12-26T07:09:26.550Z,1.60
2018-12-26T07:11:53.088Z,1.50
2018-12-26T07:14:19.936Z,1.50
2018-12-26T07:16:48.552Z,1.90
2018-12-26T07:19:17.271Z,2.20
2018-12-26T07:21:43.801Z,1.90
2018-12-26T07:24:17.831Z,1.40
2018-12-26T07:26:44.324Z,1.70
2018-12-26T07:29:11.731Z,2.10
2018-12-26T07:31:38.464Z,2.40
2018-12-26T07:34:14.604Z,2.50
2018-12-26T07:36:41.105Z,2.40
2018-12-26T07:39:07.642Z,1.90
2018-12-26T07:41:36.238Z,1.80
2018-12-26T07:44:12.439Z,1.80
2018-12-26T07:46:39.245Z,1.90
2018-12-26T07:49:07.805Z,2.20
2018-12-26T07:51:34.329Z,2.20
2018-12-26T07:54:02.049Z,2.70
2018-12-26T07:56:28.553Z,2.90
2018-12-26T07:58:57.137Z,3.00
2018-12-26T08:01:26.082Z,2.90
2018-12-26T08:03:52.584Z,2.70
2018-12-26T08:06:21.771Z,2.90
2018-12-26T08:08:48.381Z,2.90
2018-12-26T08:11:17.878Z,3.10
2018-12-26T08:13:44.413Z,2.80
2018-12-26T08:16:11.250Z,3.00
2018-12-26T08:18:41.088Z,3.20
2018-12-26T08:21:07.640Z,3.00
2018-12-26T08:23:37.075Z,3.00
2018-12-26T08:26:03.592Z,3.10
2018-12-26T08:28:30.130Z,3.10
2018-12-26T08:30:56.734Z,3.40
2018-12-26T08:33:23.581Z,3.20
2018-12-26T08:35:53.074Z,3.00
2018-12-26T08:38:21.672Z,3.10
2018-12-26T08:40:48.154Z,3.50
2018-12-26T08:43:17.383Z,3.60
2018-12-26T08:45:43.892Z,3.30
2018-12-26T08:48:12.412Z,3.30
2018-12-26T08:50:38.938Z,3.30
2018-12-26T08:53:05.541Z,3.70
2018-12-26T08:55:32.049Z,3.30
2018-12-26T08:57:58.397Z,3.00
2018-12-26T09:00:25.019Z,3.30
2018-12-26T09:02:52.532Z,3.60
2018-12-26T09:05:21.482Z,4.00
2018-12-26T09:07:50.736Z,4.30
2018-12-26T09:10:17.232Z,4.30
2018-12-26T09:12:45.780Z,4.40
2018-12-26T09:15:23.107Z,4.40
2018-12-26T09:17:52.237Z,3.70
2018-12-26T09:20:18.826Z,3.60
2018-12-26T09:22:45.378Z,3.70
2018-12-26T09:25:12.965Z,3.30
2018-12-26T09:27:39.485Z,3.30
2018-12-26T09:30:06.151Z,3.60
2018-12-26T09:32:34.715Z,3.70
2018-12-26T09:37:47.069Z,4.10
2018-12-26T09:40:15.657Z,4.10
2018-12-26T09:42:42.183Z,4.00
2018-12-26T09:45:25.999Z,3.80
2018-12-26T09:47:56.509Z,3.70
2018-12-26T09:50:24.101Z,3.70
2018-12-26T09:52:50.615Z,3.70
2018-12-26T09:55:21.943Z,3.60
2018-12-26T09:57:48.631Z,3.30
2018-12-26T10:00:17.254Z,3.90
2018-12-26T10:02:58.223Z,3.90
2018-12-26T10:05:28.395Z,3.90
2018-12-26T10:07:55.676Z,4.20
2018-12-26T10:10:23.003Z,4.50
2018-12-26T10:18:27.643Z,4.30
2018-12-26T10:20:56.888Z,4.30
2018-12-26T10:23:26.762Z,4.10
2018-12-26T10:25:54.166Z,3.90
2018-12-26T10:28:23.219Z,3.90
2018-12-26T10:30:49.746Z,3.90
2018-12-26T10:33:18.456Z,4.10
2018-12-26T10:38:31.283Z,4.80
2018-12-26T10:41:02.288Z,4.80
2018-12-26T10:43:33.044Z,4.70
2018-12-26T10:46:05.181Z,4.70
2018-12-26T10:48:34.205Z,4.30
2018-12-26T10:51:00.735Z,4.30
2018-12-26T10:53:29.294Z,4.50
2018-12-26T10:55:56.011Z,4.90
2018-12-26T10:58:24.478Z,5.10
2018-12-26T11:00:51.017Z,5.30
2018-12-26T11:03:19.845Z,5.40
2018-12-26T11:05:56.727Z,5.60
2018-12-26T11:08:23.508Z,5.50
2018-12-26T11:10:50.589Z,5.20
2018-12-26T11:13:17.114Z,5.10
2018-12-26T11:15:46.695Z,5.10
2018-12-26T11:18:13.232Z,5.00
2018-12-26T11:20:39.577Z,5.20
2018-12-26T11:23:06.088Z,5.00
2018-12-26T11:25:32.641Z,5.20
2018-12-26T11:27:59.167Z,5.40
2018-12-26T11:30:26.071Z,5.60
2018-12-26T11:32:53.750Z,5.70
2018-12-26T11:35:23.267Z,5.30
2018-12-26T11:37:49.745Z,5.20
2018-12-26T11:40:18.677Z,5.60
2018-12-26T11:42:45.535Z,5.70
2018-12-26T11:45:12.162Z,5.70
2018-12-26T11:47:38.720Z,5.30
2018-12-26T11:50:05.294Z,5.40
2018-12-26T11:52:31.904Z,5.30
2018-12-26T11:55:00.717Z,5.30
2018-12-26T11:57:29.470Z,5.00
2018-12-26T11:59:55.981Z,5.10
2018-12-26T12:02:22.530Z,5.00
2018-12-26T12:04:51.390Z,4.90
2018-12-26T12:07:18.004Z,5.10
2018-12-26T12:09:48.332Z,5.10
2018-12-26T12:12:14.901Z,5.10
2018-12-26T12:14:41.467Z,5.10
2018-12-26T12:17:08.169Z,5.40
2018-12-26T12:19:34.697Z,5.90
2018-12-26T12:22:03.902Z,6.30
2018-12-26T12:24:30.422Z,6.40
2018-12-26T12:26:56.998Z,6.60
2018-12-26T12:29:25.146Z,6.70
2018-12-26T12:31:52.027Z,6.70
2018-12-26T12:34:18.792Z,6.70
2018-12-26T12:36:48.156Z,6.60
2018-12-26T12:39:14.949Z,6.70
2018-12-26T12:41:41.461Z,6.00
2018-12-26T12:44:08.306Z,5.80
2018-12-26T12:49:22.633Z,5.40
2018-12-26T12:51:49.150Z,5.90
2018-12-26T12:54:15.707Z,5.90
2018-12-26T12:56:42.585Z,6.00
2018-12-26T12:59:12.095Z,5.90
2018-12-26T13:01:38.735Z,6.00
2018-12-26T13:04:05.269Z,6.10
2018-12-26T13:06:32.676Z,5.80
2018-12-26T13:09:02.732Z,6.10
2018-12-26T13:11:31.896Z,6.40
2018-12-26T13:13:58.413Z,6.20
2018-12-26T13:16:25.030Z,6.10
2018-12-26T13:18:51.632Z,6.10
2018-12-26T13:21:20.268Z,6.20
2018-12-26T13:23:46.885Z,6.20
2018-12-26T13:26:15.651Z,5.80
2018-12-26T13:28:42.232Z,5.50
2018-12-26T13:31:10.917Z,5.10
2018-12-26T13:33:38.519Z,5.40
2018-12-26T13:36:05.235Z,5.10
2018-12-26T13:38:33.895Z,5.20
2018-12-26T13:41:00.374Z,5.20
2018-12-26T13:43:26.904Z,5.10
2018-12-26T13:45:55.508Z,5.20
2018-12-26T13:48:22.011Z,5.20
2018-12-26T13:50:48.611Z,5.50
2018-12-26T13:53:15.107Z,5.40
2018-12-26T13:55:41.633Z,5.20
2018-12-26T13:58:08.178Z,5.00
2018-12-26T14:00:34.709Z,5.00
2018-12-26T14:03:01.535Z,5.30
2018-12-26T14:05:30.203Z,5.40
2018-12-26T14:08:09.390Z,4.90
2018-12-26T14:10:35.973Z,5.20
2018-12-26T14:13:02.812Z,5.50
2018-12-26T14:15:29.165Z,5.60
2018-12-26T14:17:56.978Z,5.80
2018-12-26T14:20:23.536Z,5.80
2018-12-26T14:22:50.075Z,5.20
2018-12-26T14:25:16.443Z,5.50
2018-12-26T14:27:46.786Z,5.60
2018-12-26T14:30:13.296Z,5.60
2018-12-26T14:32:40.004Z,5.50
2018-12-26T14:35:06.604Z,5.60
2018-12-26T14:37:35.522Z,5.40
2018-12-26T14:40:02.025Z,5.30
2018-12-26T14:42:28.617Z,4.50
2018-12-26T14:44:55.841Z,4.30
2018-12-26T14:47:22.696Z,4.10
2018-12-26T14:49:52.560Z,4.20
2018-12-26T14:52:21.739Z,4.50
2018-12-26T14:54:51.342Z,4.80
2018-12-26T14:57:19.923Z,4.60
2018-12-26T14:59:46.434Z,3.60
2018-12-26T15:02:12.977Z,4.00
2018-12-26T15:04:40.229Z,4.10
2018-12-26T15:07:06.777Z,4.20
2018-12-26T15:09:33.325Z,4.00
2018-12-26T15:12:01.916Z,4.00
2018-12-26T15:14:28.851Z,4.00
2018-12-26T15:16:57.103Z,3.80
2018-12-26T15:19:23.732Z,3.70
2018-12-26T15:21:50.227Z,3.80
2018-12-26T15:24:16.783Z,3.70
2018-12-26T15:26:45.751Z,3.80
2018-12-26T15:29:12.405Z,3.90
2018-12-26T15:31:38.940Z,3.80
2018-12-26T15:34:06.569Z,3.50
2018-12-26T15:36:35.418Z,3.00
2018-12-26T15:39:01.954Z,3.30
2018-12-26T15:41:30.917Z,3.40
2018-12-26T15:43:57.512Z,3.40
2018-12-26T15:46:24.082Z,3.30
2018-12-26T15:49:01.182Z,3.40
2018-12-26T15:51:28.076Z,2.90
2018-12-26T15:53:56.653Z,3.00
2018-12-26T15:56:23.946Z,3.30
2018-12-26T15:58:50.299Z,3.20
2018-12-26T16:01:19.061Z,2.90
2018-12-26T16:03:45.650Z,3.00
2018-12-26T16:06:14.442Z,2.80
2018-12-26T16:08:47.660Z,2.80
2018-12-26T16:11:16.489Z,2.90
2018-12-26T16:13:45.283Z,2.80
2018-12-26T16:16:15.402Z,2.20
2018-12-26T16:18:53.300Z,2.10
2018-12-26T16:21:22.126Z,2.40
2018-12-26T16:23:48.637Z,2.50
2018-12-26T16:26:17.467Z,2.60
2018-12-26T16:28:44.578Z,2.60
2018-12-26T16:31:13.385Z,2.50
2018-12-26T16:33:39.940Z,2.60
2018-12-26T16:36:08.487Z,2.50
2018-12-26T16:41:24.026Z,2.40
2018-12-26T16:43:50.880Z,2.50
2018-12-26T16:46:19.457Z,2.40
2018-12-26T16:48:46.847Z,2.30
2018-12-26T16:53:59.630Z,2.30
2018-12-26T16:59:14.062Z,2.40
2018-12-26T17:01:40.634Z,2.10
2018-12-26T17:04:10.591Z,2.20
2018-12-26T17:06:41.397Z,2.20
2018-12-26T17:09:07.993Z,2.30
2018-12-26T17:11:36.805Z,2.10
2018-12-26T17:14:05.476Z,1.40
2018-12-26T17:16:38.316Z,1.20
2018-12-26T17:19:04.808Z,1.40
2018-12-26T17:21:31.369Z,1.70
2018-12-26T17:23:58.034Z,1.90
2018-12-26T17:26:24.575Z,1.90
2018-12-26T17:28:53.909Z,1.90
2018-12-26T17:31:20.543Z,1.70
2018-12-26T17:33:48.108Z,1.70
2018-12-26T17:36:14.666Z,1.70
2018-12-26T17:38:41.508Z,1.70
2018-12-26T17:41:08.080Z,1.70
2018-12-26T17:43:36.638Z,1.60
2018-12-26T17:46:03.187Z,1.60
2018-12-26T17:48:30.030Z,1.10
2018-12-26T17:50:58.455Z,1.00
2018-12-26T17:53:43.030Z,1.40
2018-12-26T17:56:11.871Z,1.30
2018-12-26T17:58:38.432Z,1.10
2018-12-26T18:01:12.805Z,1.20
2018-12-26T18:03:35.702Z,1.60
2018-12-26T18:06:13.521Z,1.60
2018-12-26T18:08:42.391Z,1.60
2018-12-26T18:11:08.929Z,1.70
2018-12-26T18:13:35.683Z,1.60
2018-12-26T18:16:02.224Z,1.20
2018-12-26T18:18:28.768Z,0.70
2018-12-26T18:20:58.544Z,0.90
2018-12-26T18:23:25.113Z,0.30
2018-12-26T18:25:53.918Z,0.50
2018-12-26T18:28:20.461Z,0.60
2018-12-26T18:30:49.224Z,0.70
2018-12-26T18:33:15.762Z,0.80
2018-12-26T18:35:44.452Z,1.00
2018-12-26T18:38:11.686Z,0.70
2018-12-26T18:40:38.161Z,0.90
2018-12-26T18:43:04.673Z,0.90
2018-12-26T18:45:33.423Z,1.00
2018-12-26T18:47:59.990Z,0.80
2018-12-26T18:50:26.466Z,0.90
2018-12-26T18:52:53.046Z,0.80
2018-12-26T18:55:22.646Z,0.70
2018-12-26T18:57:49.149Z,0.70
2018-12-26T19:00:16.036Z,0.80
2018-12-26T19:02:42.597Z,0.90
2018-12-26T19:05:09.114Z,0.90
2018-12-26T19:07:39.469Z,0.90
2018-12-26T19:10:08.055Z,0.90
2018-12-26T19:12:34.578Z,0.90
2018-12-26T19:15:01.120Z,0.60
2018-12-26T19:17:38.005Z,0.30
2018-12-26T19:20:06.736Z,0.40
2018-12-26T19:22:33.840Z,0.30
2018-12-26T19:25:03.227Z,0.40
2018-12-26T19:27:29.732Z,0.60
2018-12-26T19:29:59.468Z,0.60
2018-12-26T19:32:25.830Z,0.00
2018-12-26T19:34:52.389Z,0.00
2018-12-26T19:37:26.019Z,0.20
2018-12-26T19:39:52.562Z,0.10
2018-12-26T19:42:19.126Z,-0.10
2018-12-26T19:44:47.547Z,0.10
2018-12-26T19:47:16.983Z,0.00
2018-12-26T19:49:43.492Z,0.00
2018-12-26T19:52:10.082Z,0.10
2018-12-26T19:54:36.667Z,0.00
2018-12-26T19:57:08.322Z,0.10
2018-12-26T19:59:37.205Z,0.10
2018-12-26T20:02:03.753Z,0.20
2018-12-26T20:04:30.342Z,-0.40
2018-12-26T20:06:56.943Z,-0.40
2018-12-26T20:09:23.452Z,-0.10
2018-12-26T20:11:50.081Z,-0.30
2018-12-26T20:14:17.069Z,-0.10
2018-12-26T20:16:43.601Z,0.10
2018-12-26T20:19:10.146Z,0.10
2018-12-26T20:21:36.721Z,-0.40
2018-12-26T20:24:03.248Z,-0.30
2018-12-26T20:26:29.774Z,-0.40
2018-12-26T20:28:56.334Z,-0.80
2018-12-26T20:31:25.158Z,-0.60
2018-12-26T20:33:51.875Z,-1.00
2018-12-26T20:36:18.439Z,-0.70
2018-12-26T20:38:46.004Z,-0.60
2018-12-26T20:41:15.019Z,-0.60
2018-12-26T20:43:43.963Z,-0.70
2018-12-26T20:46:10.670Z,-0.50
2018-12-26T20:48:55.746Z,-1.20
2018-12-26T20:51:22.148Z,-0.80
2018-12-26T20:53:50.057Z,-0.40
2018-12-26T20:56:19.101Z,-0.50
2018-12-26T20:58:45.880Z,-0.70
2018-12-26T21:01:13.587Z,-0.90
2018-12-26T21:03:40.262Z,-0.90
2018-12-26T21:06:06.799Z,-0.60
2018-12-26T21:11:19.988Z,-0.30
2018-12-26T21:13:46.555Z,-0.70
2018-12-26T21:16:13.099Z,-0.90
2018-12-26T21:18:42.407Z,-1.20
2018-12-26T21:21:11.196Z,-1.10
2018-12-26T21:23:37.736Z,-1.40
2018-12-26T21:26:06.302Z,-0.90
2018-12-26T21:28:41.334Z,-1.10
2018-12-26T21:31:08.515Z,-1.20
2018-12-26T21:33:36.259Z,-1.00
2018-12-26T21:36:03.891Z,-1.00
2018-12-26T21:38:30.459Z,-1.20
2018-12-26T21:40:56.996Z,-1.30
2018-12-26T21:43:23.526Z,-1.10
2018-12-26T21:45:52.583Z,-1.30
2018-12-26T21:48:19.108Z,-1.10
2018-12-26T21:50:48.017Z,-1.60
2018-12-26T21:53:14.594Z,-1.40
2018-12-26T21:55:41.372Z,-1.30
2018-12-26T21:58:11.419Z,-1.30
2018-12-26T22:00:41.261Z,-1.00
2018-12-26T22:03:08.792Z,-0.90
2018-12-26T22:05:36.316Z,-0.80
2018-12-26T22:08:02.853Z,-0.70
2018-12-26T22:10:29.355Z,-0.40
2018-12-26T22:12:58.197Z,-0.60
2018-12-26T22:15:27.526Z,-1.00
2018-12-26T22:17:56.647Z,-0.90
2018-12-26T22:20:25.305Z,-1.40
2018-12-26T22:22:53.641Z,-1.30
2018-12-26T22:25:22.206Z,-1.00
2018-12-26T22:27:49.070Z,-0.80
2018-12-26T22:30:17.623Z,-0.70
2018-12-26T22:32:48.102Z,-0.50
2018-12-26T22:35:16.843Z,-0.70
2018-12-26T22:37:45.964Z,-0.60
2018-12-26T22:40:12.476Z,-0.80
2018-12-26T22:42:39.085Z,-0.90
2018-12-26T22:45:05.627Z,-0.80
2018-12-26T22:47:32.179Z,-1.00
2018-12-26T22:50:01.080Z,-0.80
2018-12-26T22:52:29.654Z,-0.80
2018-12-26T22:54:58.512Z,-0.90
2018-12-26T22:57:25.930Z,-0.60
2018-12-26T22:59:54.504Z,-0.60
2018-12-26T23:02:21.024Z,-1.00
2018-12-26T23:04:47.652Z,-1.40
2018-12-26T23:07:17.292Z,-1.30
2018-12-26T23:09:56.273Z,-1.30
2018-12-26T23:12:22.906Z,-1.40
2018-12-26T23:14:49.455Z,-1.60
2018-12-26T23:17:18.246Z,-1.50
2018-12-26T23:19:45.932Z,-1.50
2018-12-26T23:22:12.458Z,-1.10
2018-12-26T23:24:41.305Z,-1.20
2018-12-26T23:27:08.999Z,-1.00
2018-12-26T23:29:35.807Z,-0.80
2018-12-26T23:32:02.358Z,-1.00
2018-12-26T23:34:28.963Z,-1.00
2018-12-26T23:36:55.915Z,-1.00
2018-12-26T23:39:22.808Z,-1.10
2018-12-26T23:41:52.677Z,-1.30
2018-12-26T23:44:19.587Z,-1.20
2018-12-26T23:46:46.133Z,-1.10
2018-12-26T23:49:12.993Z,-1.50
2018-12-26T23:51:40.370Z,-1.20
2018-12-26T23:54:06.906Z,-1.30
2018-12-26T23:56:33.547Z,-1.10
2018-12-26T23:59:00.071Z,-1.40
